sensor_id;sensor_type;location;lat;lon;timestamp;P1;durP1;ratioP1;P2;durP2;ratioP2
10667;SDS011;5382;42.136;24.796;2023-02-28T00:01:19;14.45;;;5.07;;
10667;SDS011;5382;42.136;24.796;2023-02-28T00:03:46;6.15;;;4.22;;
10667;SDS011;5382;42.136;24.796;2023-02-28T00:06:13;6.13;;;3.90;;
10667;SDS011;5382;42.136;24.796;2023-02-28T00:08:40;10.40;;;4.88;;
10667;SDS011;5382;42.136;24.796;2023-02-28T00:11:08;8.75;;;5.00;;
10667;SDS011;5382;42.136;24.796;2023-02-28T00:13:39;9.68;;;5.28;;
10667;SDS011;5382;42.136;24.796;2023-02-28T00:16:08;7.60;;;4.57;;
10667;SDS011;5382;42.136;24.796;2023-02-28T00:18:36;8.18;;;4.72;;
10667;SDS011;5382;42.136;24.796;2023-02-28T00:21:03;8.40;;;4.68;;
10667;SDS011;5382;42.136;24.796;2023-02-28T00:23:30;7.80;;;4.78;;
10667;SDS011;5382;42.136;24.796;2023-02-28T00:25:57;9.57;;;4.68;;
10667;SDS011;5382;42.136;24.796;2023-02-28T00:28:24;8.10;;;4.90;;
10667;SDS011;5382;42.136;24.796;2023-02-28T00:30:52;7.38;;;4.50;;
10667;SDS011;5382;42.136;24.796;2023-02-28T00:33:19;10.95;;;4.80;;
10667;SDS011;5382;42.136;24.796;2023-02-28T00:35:46;8.30;;;4.75;;
10667;SDS011;5382;42.136;24.796;2023-02-28T00:38:13;9.23;;;5.32;;
10667;SDS011;5382;42.136;24.796;2023-02-28T00:40:41;9.90;;;4.75;;
10667;SDS011;5382;42.136;24.796;2023-02-28T00:43:08;11.57;;;4.35;;
10667;SDS011;5382;42.136;24.796;2023-02-28T00:45:35;14.05;;;5.40;;
10667;SDS011;5382;42.136;24.796;2023-02-28T00:48:03;7.45;;;4.45;;
10667;SDS011;5382;42.136;24.796;2023-02-28T00:50:31;10.77;;;4.78;;
10667;SDS011;5382;42.136;24.796;2023-02-28T00:52:58;13.55;;;5.45;;
10667;SDS011;5382;42.136;24.796;2023-02-28T00:55:24;7.40;;;5.03;;
10667;SDS011;5382;42.136;24.796;2023-02-28T00:57:51;9.75;;;5.00;;
10667;SDS011;5382;42.136;24.796;2023-02-28T01:00:18;8.63;;;5.05;;
10667;SDS011;5382;42.136;24.796;2023-02-28T01:02:45;12.15;;;6.20;;
10667;SDS011;5382;42.136;24.796;2023-02-28T01:05:13;11.13;;;5.55;;
10667;SDS011;5382;42.136;24.796;2023-02-28T01:07:40;10.02;;;4.40;;
10667;SDS011;5382;42.136;24.796;2023-02-28T01:10:08;13.00;;;5.25;;
10667;SDS011;5382;42.136;24.796;2023-02-28T01:12:35;10.70;;;5.60;;
10667;SDS011;5382;42.136;24.796;2023-02-28T01:15:02;12.27;;;5.05;;
10667;SDS011;5382;42.136;24.796;2023-02-28T01:17:30;8.63;;;4.30;;
10667;SDS011;5382;42.136;24.796;2023-02-28T01:19:57;12.52;;;4.68;;
10667;SDS011;5382;42.136;24.796;2023-02-28T01:22:25;6.35;;;4.70;;
10667;SDS011;5382;42.136;24.796;2023-02-28T01:24:52;13.98;;;4.93;;
10667;SDS011;5382;42.136;24.796;2023-02-28T01:27:19;6.25;;;3.55;;
10667;SDS011;5382;42.136;24.796;2023-02-28T01:29:45;10.50;;;4.82;;
10667;SDS011;5382;42.136;24.796;2023-02-28T01:32:12;8.30;;;5.53;;
10667;SDS011;5382;42.136;24.796;2023-02-28T01:34:39;8.20;;;5.25;;
10667;SDS011;5382;42.136;24.796;2023-02-28T01:37:06;8.10;;;4.20;;
10667;SDS011;5382;42.136;24.796;2023-02-28T01:39:34;12.68;;;4.65;;
10667;SDS011;5382;42.136;24.796;2023-02-28T01:42:01;8.75;;;4.63;;
10667;SDS011;5382;42.136;24.796;2023-02-28T01:47:29;10.13;;;5.55;;
10667;SDS011;5382;42.136;24.796;2023-02-28T01:49:58;18.80;;;6.53;;
10667;SDS011;5382;42.136;24.796;2023-02-28T01:52:27;12.90;;;6.32;;
10667;SDS011;5382;42.136;24.796;2023-02-28T01:54:56;8.77;;;5.28;;
10667;SDS011;5382;42.136;24.796;2023-02-28T01:57:28;10.68;;;4.20;;
10667;SDS011;5382;42.136;24.796;2023-02-28T02:00:03;7.50;;;4.97;;
10667;SDS011;5382;42.136;24.796;2023-02-28T02:02:34;8.52;;;4.65;;
10667;SDS011;5382;42.136;24.796;2023-02-28T02:05:04;7.68;;;3.63;;
10667;SDS011;5382;42.136;24.796;2023-02-28T02:07:33;9.73;;;4.15;;
10667;SDS011;5382;42.136;24.796;2023-02-28T02:10:05;7.25;;;5.00;;
10667;SDS011;5382;42.136;24.796;2023-02-28T02:12:48;7.35;;;5.35;;
10667;SDS011;5382;42.136;24.796;2023-02-28T02:15:29;13.05;;;5.90;;
10667;SDS011;5382;42.136;24.796;2023-02-28T02:18:02;7.97;;;5.50;;
10667;SDS011;5382;42.136;24.796;2023-02-28T02:23:51;25.63;;;5.60;;
10667;SDS011;5382;42.136;24.796;2023-02-28T02:29:39;12.65;;;6.75;;
10667;SDS011;5382;42.136;24.796;2023-02-28T02:32:47;12.82;;;5.97;;
10667;SDS011;5382;42.136;24.796;2023-02-28T02:35:27;10.27;;;5.68;;
10667;SDS011;5382;42.136;24.796;2023-02-28T02:38:00;12.32;;;6.35;;
10667;SDS011;5382;42.136;24.796;2023-02-28T02:40:33;6.47;;;3.92;;
10667;SDS011;5382;42.136;24.796;2023-02-28T02:43:06;9.23;;;5.88;;
10667;SDS011;5382;42.136;24.796;2023-02-28T02:45:36;13.00;;;6.10;;
10667;SDS011;5382;42.136;24.796;2023-02-28T02:48:06;11.68;;;5.95;;
10667;SDS011;5382;42.136;24.796;2023-02-28T02:50:41;8.70;;;5.15;;
10667;SDS011;5382;42.136;24.796;2023-02-28T02:53:10;12.55;;;6.32;;
10667;SDS011;5382;42.136;24.796;2023-02-28T02:55:41;13.73;;;7.00;;
10667;SDS011;5382;42.136;24.796;2023-02-28T02:58:13;11.77;;;5.28;;
10667;SDS011;5382;42.136;24.796;2023-02-28T03:00:44;10.35;;;5.60;;
10667;SDS011;5382;42.136;24.796;2023-02-28T03:03:14;11.95;;;6.10;;
10667;SDS011;5382;42.136;24.796;2023-02-28T03:05:47;9.38;;;6.07;;
10667;SDS011;5382;42.136;24.796;2023-02-28T03:08:15;11.85;;;7.18;;
10667;SDS011;5382;42.136;24.796;2023-02-28T03:10:43;12.65;;;7.10;;
10667;SDS011;5382;42.136;24.796;2023-02-28T03:13:15;10.02;;;6.45;;
10667;SDS011;5382;42.136;24.796;2023-02-28T03:16:00;11.35;;;6.65;;
10667;SDS011;5382;42.136;24.796;2023-02-28T03:18:59;9.85;;;6.78;;
10667;SDS011;5382;42.136;24.796;2023-02-28T03:21:40;11.65;;;6.57;;
10667;SDS011;5382;42.136;24.796;2023-02-28T03:24:10;12.07;;;7.05;;
10667;SDS011;5382;42.136;24.796;2023-02-28T03:26:42;12.13;;;6.95;;
10667;SDS011;5382;42.136;24.796;2023-02-28T03:29:13;14.43;;;6.55;;
10667;SDS011;5382;42.136;24.796;2023-02-28T03:31:48;16.75;;;6.88;;
10667;SDS011;5382;42.136;24.796;2023-02-28T03:34:19;16.92;;;7.57;;
10667;SDS011;5382;42.136;24.796;2023-02-28T03:36:52;13.80;;;7.25;;
10667;SDS011;5382;42.136;24.796;2023-02-28T03:39:24;19.33;;;8.18;;
10667;SDS011;5382;42.136;24.796;2023-02-28T03:41:56;16.88;;;7.75;;
10667;SDS011;5382;42.136;24.796;2023-02-28T03:44:26;15.23;;;7.05;;
10667;SDS011;5382;42.136;24.796;2023-02-28T03:46:57;14.85;;;6.75;;
10667;SDS011;5382;42.136;24.796;2023-02-28T03:49:27;15.23;;;7.57;;
10667;SDS011;5382;42.136;24.796;2023-02-28T03:52:00;16.30;;;7.55;;
10667;SDS011;5382;42.136;24.796;2023-02-28T03:54:30;16.98;;;7.88;;
10667;SDS011;5382;42.136;24.796;2023-02-28T03:57:02;15.35;;;8.57;;
10667;SDS011;5382;42.136;24.796;2023-02-28T03:59:36;19.88;;;9.93;;
10667;SDS011;5382;42.136;24.796;2023-02-28T04:02:06;13.23;;;8.73;;
10667;SDS011;5382;42.136;24.796;2023-02-28T04:04:33;17.27;;;9.10;;
10667;SDS011;5382;42.136;24.796;2023-02-28T04:07:03;13.70;;;7.35;;
10667;SDS011;5382;42.136;24.796;2023-02-28T04:09:32;13.98;;;8.48;;
10667;SDS011;5382;42.136;24.796;2023-02-28T04:11:58;10.98;;;7.32;;
10667;SDS011;5382;42.136;24.796;2023-02-28T04:14:25;11.98;;;7.53;;
10667;SDS011;5382;42.136;24.796;2023-02-28T04:16:52;16.67;;;7.75;;
10667;SDS011;5382;42.136;24.796;2023-02-28T04:19:19;11.70;;;6.75;;
10667;SDS011;5382;42.136;24.796;2023-02-28T04:21:47;12.48;;;8.02;;
10667;SDS011;5382;42.136;24.796;2023-02-28T04:24:17;11.40;;;7.32;;
10667;SDS011;5382;42.136;24.796;2023-02-28T04:26:45;11.25;;;7.43;;
10667;SDS011;5382;42.136;24.796;2023-02-28T04:29:17;14.27;;;8.75;;
10667;SDS011;5382;42.136;24.796;2023-02-28T04:31:45;9.80;;;6.65;;
10667;SDS011;5382;42.136;24.796;2023-02-28T04:34:12;15.80;;;8.55;;
10667;SDS011;5382;42.136;24.796;2023-02-28T04:36:38;13.10;;;8.38;;
10667;SDS011;5382;42.136;24.796;2023-02-28T04:39:05;13.00;;;8.38;;
10667;SDS011;5382;42.136;24.796;2023-02-28T04:41:33;12.68;;;8.18;;
10667;SDS011;5382;42.136;24.796;2023-02-28T04:44:00;17.00;;;8.80;;
10667;SDS011;5382;42.136;24.796;2023-02-28T04:46:27;14.45;;;7.78;;
10667;SDS011;5382;42.136;24.796;2023-02-28T04:48:55;13.35;;;8.20;;
10667;SDS011;5382;42.136;24.796;2023-02-28T04:51:23;13.45;;;8.25;;
10667;SDS011;5382;42.136;24.796;2023-02-28T04:53:50;9.23;;;6.53;;
10667;SDS011;5382;42.136;24.796;2023-02-28T04:56:17;13.90;;;7.90;;
10667;SDS011;5382;42.136;24.796;2023-02-28T04:58:45;11.13;;;6.28;;
10667;SDS011;5382;42.136;24.796;2023-02-28T05:01:17;12.65;;;7.70;;
10667;SDS011;5382;42.136;24.796;2023-02-28T05:03:49;14.57;;;7.72;;
10667;SDS011;5382;42.136;24.796;2023-02-28T05:06:17;13.95;;;7.28;;
10667;SDS011;5382;42.136;24.796;2023-02-28T05:08:45;9.90;;;5.85;;
10667;SDS011;5382;42.136;24.796;2023-02-28T05:11:13;11.45;;;7.60;;
10667;SDS011;5382;42.136;24.796;2023-02-28T05:13:43;11.43;;;6.22;;
10667;SDS011;5382;42.136;24.796;2023-02-28T05:16:11;12.52;;;7.60;;
10667;SDS011;5382;42.136;24.796;2023-02-28T05:18:39;12.25;;;7.28;;
10667;SDS011;5382;42.136;24.796;2023-02-28T05:21:06;14.25;;;7.25;;
10667;SDS011;5382;42.136;24.796;2023-02-28T05:23:49;12.60;;;7.30;;
10667;SDS011;5382;42.136;24.796;2023-02-28T05:26:16;9.88;;;7.32;;
10667;SDS011;5382;42.136;24.796;2023-02-28T05:28:43;15.32;;;7.97;;
10667;SDS011;5382;42.136;24.796;2023-02-28T05:31:10;12.52;;;7.35;;
10667;SDS011;5382;42.136;24.796;2023-02-28T05:33:39;12.20;;;7.50;;
10667;SDS011;5382;42.136;24.796;2023-02-28T05:36:06;13.95;;;6.82;;
10667;SDS011;5382;42.136;24.796;2023-02-28T05:38:33;11.00;;;7.03;;
10667;SDS011;5382;42.136;24.796;2023-02-28T05:41:00;8.52;;;6.63;;
10667;SDS011;5382;42.136;24.796;2023-02-28T05:43:30;8.93;;;6.30;;
10667;SDS011;5382;42.136;24.796;2023-02-28T05:45:57;11.85;;;6.60;;
10667;SDS011;5382;42.136;24.796;2023-02-28T05:48:25;10.98;;;6.78;;
10667;SDS011;5382;42.136;24.796;2023-02-28T05:50:52;13.18;;;7.78;;
10667;SDS011;5382;42.136;24.796;2023-02-28T05:53:19;11.52;;;6.93;;
10667;SDS011;5382;42.136;24.796;2023-02-28T05:55:46;13.00;;;7.40;;
10667;SDS011;5382;42.136;24.796;2023-02-28T05:58:13;10.75;;;7.10;;
10667;SDS011;5382;42.136;24.796;2023-02-28T06:00:40;11.85;;;6.60;;
10667;SDS011;5382;42.136;24.796;2023-02-28T06:03:08;14.73;;;6.78;;
10667;SDS011;5382;42.136;24.796;2023-02-28T06:05:36;15.95;;;7.55;;
10667;SDS011;5382;42.136;24.796;2023-02-28T06:08:04;10.98;;;7.00;;
10667;SDS011;5382;42.136;24.796;2023-02-28T06:10:32;16.40;;;7.88;;
10667;SDS011;5382;42.136;24.796;2023-02-28T06:12:59;14.13;;;7.03;;
10667;SDS011;5382;42.136;24.796;2023-02-28T06:15:27;11.80;;;7.35;;
10667;SDS011;5382;42.136;24.796;2023-02-28T06:17:54;13.15;;;8.32;;
10667;SDS011;5382;42.136;24.796;2023-02-28T06:20:22;10.98;;;5.85;;
10667;SDS011;5382;42.136;24.796;2023-02-28T06:22:51;16.15;;;7.97;;
10667;SDS011;5382;42.136;24.796;2023-02-28T06:25:19;12.77;;;6.97;;
10667;SDS011;5382;42.136;24.796;2023-02-28T06:27:46;16.95;;;8.77;;
10667;SDS011;5382;42.136;24.796;2023-02-28T06:30:13;12.05;;;8.02;;
10667;SDS011;5382;42.136;24.796;2023-02-28T06:32:41;11.63;;;5.03;;
10667;SDS011;5382;42.136;24.796;2023-02-28T06:35:08;13.73;;;8.05;;
10667;SDS011;5382;42.136;24.796;2023-02-28T06:37:35;11.27;;;7.60;;
10667;SDS011;5382;42.136;24.796;2023-02-28T06:40:04;10.43;;;7.28;;
10667;SDS011;5382;42.136;24.796;2023-02-28T06:42:32;10.65;;;7.55;;
10667;SDS011;5382;42.136;24.796;2023-02-28T06:44:59;9.95;;;7.28;;
10667;SDS011;5382;42.136;24.796;2023-02-28T06:47:28;12.77;;;7.50;;
10667;SDS011;5382;42.136;24.796;2023-02-28T06:49:56;10.85;;;7.82;;
10667;SDS011;5382;42.136;24.796;2023-02-28T06:52:23;10.82;;;7.38;;
10667;SDS011;5382;42.136;24.796;2023-02-28T06:54:50;11.65;;;7.85;;
10667;SDS011;5382;42.136;24.796;2023-02-28T06:57:26;15.93;;;7.90;;
10667;SDS011;5382;42.136;24.796;2023-02-28T06:59:56;14.02;;;8.70;;
10667;SDS011;5382;42.136;24.796;2023-02-28T07:02:23;16.45;;;8.10;;
10667;SDS011;5382;42.136;24.796;2023-02-28T07:04:50;10.43;;;7.15;;
10667;SDS011;5382;42.136;24.796;2023-02-28T07:07:17;16.77;;;8.68;;
10667;SDS011;5382;42.136;24.796;2023-02-28T07:09:44;12.98;;;8.60;;
10667;SDS011;5382;42.136;24.796;2023-02-28T07:12:11;13.10;;;7.63;;
10667;SDS011;5382;42.136;24.796;2023-02-28T07:14:39;11.23;;;7.40;;
10667;SDS011;5382;42.136;24.796;2023-02-28T07:17:06;13.10;;;8.27;;
10667;SDS011;5382;42.136;24.796;2023-02-28T07:19:33;13.45;;;9.05;;
10667;SDS011;5382;42.136;24.796;2023-02-28T07:22:00;14.55;;;9.55;;
10667;SDS011;5382;42.136;24.796;2023-02-28T07:24:27;15.27;;;8.02;;
10667;SDS011;5382;42.136;24.796;2023-02-28T07:26:54;20.80;;;9.13;;
10667;SDS011;5382;42.136;24.796;2023-02-28T07:29:21;12.52;;;8.48;;
10667;SDS011;5382;42.136;24.796;2023-02-28T07:31:49;12.00;;;8.00;;
10667;SDS011;5382;42.136;24.796;2023-02-28T07:34:18;20.48;;;10.57;;
10667;SDS011;5382;42.136;24.796;2023-02-28T07:36:45;21.40;;;11.10;;
10667;SDS011;5382;42.136;24.796;2023-02-28T07:39:12;14.25;;;9.02;;
10667;SDS011;5382;42.136;24.796;2023-02-28T07:41:38;16.30;;;10.43;;
10667;SDS011;5382;42.136;24.796;2023-02-28T07:44:08;27.83;;;10.38;;
10667;SDS011;5382;42.136;24.796;2023-02-28T07:46:35;19.17;;;10.57;;
10667;SDS011;5382;42.136;24.796;2023-02-28T07:49:04;17.88;;;10.35;;
10667;SDS011;5382;42.136;24.796;2023-02-28T07:51:31;20.25;;;10.15;;
10667;SDS011;5382;42.136;24.796;2023-02-28T07:53:58;18.25;;;10.80;;
10667;SDS011;5382;42.136;24.796;2023-02-28T07:56:25;20.58;;;11.55;;
10667;SDS011;5382;42.136;24.796;2023-02-28T07:58:52;15.43;;;8.85;;
10667;SDS011;5382;42.136;24.796;2023-02-28T08:01:19;20.92;;;12.65;;
10667;SDS011;5382;42.136;24.796;2023-02-28T08:03:46;23.45;;;15.50;;
10667;SDS011;5382;42.136;24.796;2023-02-28T08:06:18;17.50;;;11.27;;
10667;SDS011;5382;42.136;24.796;2023-02-28T08:08:46;16.67;;;11.00;;
10667;SDS011;5382;42.136;24.796;2023-02-28T08:11:14;14.52;;;8.32;;
10667;SDS011;5382;42.136;24.796;2023-02-28T08:13:41;18.80;;;10.93;;
10667;SDS011;5382;42.136;24.796;2023-02-28T08:16:09;16.08;;;9.48;;
10667;SDS011;5382;42.136;24.796;2023-02-28T08:18:36;16.70;;;9.20;;
10667;SDS011;5382;42.136;24.796;2023-02-28T08:21:05;22.25;;;11.07;;
10667;SDS011;5382;42.136;24.796;2023-02-28T08:23:34;19.92;;;9.65;;
10667;SDS011;5382;42.136;24.796;2023-02-28T08:26:00;18.25;;;11.05;;
10667;SDS011;5382;42.136;24.796;2023-02-28T08:28:28;16.13;;;10.20;;
10667;SDS011;5382;42.136;24.796;2023-02-28T08:30:55;21.27;;;9.77;;
10667;SDS011;5382;42.136;24.796;2023-02-28T08:33:21;17.70;;;10.68;;
10667;SDS011;5382;42.136;24.796;2023-02-28T08:35:48;15.23;;;11.13;;
10667;SDS011;5382;42.136;24.796;2023-02-28T08:38:19;18.95;;;11.93;;
10667;SDS011;5382;42.136;24.796;2023-02-28T08:40:48;13.65;;;9.45;;
10667;SDS011;5382;42.136;24.796;2023-02-28T08:43:15;13.20;;;10.95;;
10667;SDS011;5382;42.136;24.796;2023-02-28T08:45:41;18.58;;;10.02;;
10667;SDS011;5382;42.136;24.796;2023-02-28T08:48:08;18.67;;;10.35;;
10667;SDS011;5382;42.136;24.796;2023-02-28T08:50:35;15.73;;;10.20;;
10667;SDS011;5382;42.136;24.796;2023-02-28T08:53:02;13.40;;;9.32;;
10667;SDS011;5382;42.136;24.796;2023-02-28T08:55:29;20.27;;;11.15;;
10667;SDS011;5382;42.136;24.796;2023-02-28T08:57:57;17.27;;;9.13;;
10667;SDS011;5382;42.136;24.796;2023-02-28T09:00:24;14.98;;;11.27;;
10667;SDS011;5382;42.136;24.796;2023-02-28T09:02:51;16.63;;;10.77;;
10667;SDS011;5382;42.136;24.796;2023-02-28T09:05:18;19.65;;;11.80;;
10667;SDS011;5382;42.136;24.796;2023-02-28T09:07:44;20.63;;;11.55;;
10667;SDS011;5382;42.136;24.796;2023-02-28T09:10:11;24.90;;;11.50;;
10667;SDS011;5382;42.136;24.796;2023-02-28T09:12:38;15.63;;;11.43;;
10667;SDS011;5382;42.136;24.796;2023-02-28T09:15:07;16.02;;;11.05;;
10667;SDS011;5382;42.136;24.796;2023-02-28T09:17:34;14.80;;;10.48;;
10667;SDS011;5382;42.136;24.796;2023-02-28T09:20:01;15.10;;;9.25;;
10667;SDS011;5382;42.136;24.796;2023-02-28T09:22:28;13.40;;;9.48;;
10667;SDS011;5382;42.136;24.796;2023-02-28T09:24:55;10.07;;;8.48;;
10667;SDS011;5382;42.136;24.796;2023-02-28T09:27:21;17.75;;;10.40;;
10667;SDS011;5382;42.136;24.796;2023-02-28T09:29:48;17.90;;;11.45;;
10667;SDS011;5382;42.136;24.796;2023-02-28T09:32:16;19.25;;;11.73;;
10667;SDS011;5382;42.136;24.796;2023-02-28T09:34:44;15.30;;;12.70;;
10667;SDS011;5382;42.136;24.796;2023-02-28T09:37:10;18.08;;;11.25;;
10667;SDS011;5382;42.136;24.796;2023-02-28T09:39:37;23.08;;;12.30;;
10667;SDS011;5382;42.136;24.796;2023-02-28T09:42:04;14.65;;;9.07;;
10667;SDS011;5382;42.136;24.796;2023-02-28T09:44:35;17.10;;;10.70;;
10667;SDS011;5382;42.136;24.796;2023-02-28T09:47:05;21.20;;;12.07;;
10667;SDS011;5382;42.136;24.796;2023-02-28T09:49:40;22.00;;;11.18;;
10667;SDS011;5382;42.136;24.796;2023-02-28T09:52:09;18.13;;;11.93;;
10667;SDS011;5382;42.136;24.796;2023-02-28T09:54:38;21.30;;;12.50;;
10667;SDS011;5382;42.136;24.796;2023-02-28T09:57:06;19.58;;;11.73;;
10667;SDS011;5382;42.136;24.796;2023-02-28T09:59:43;19.48;;;12.57;;
10667;SDS011;5382;42.136;24.796;2023-02-28T10:02:31;18.02;;;11.43;;
10667;SDS011;5382;42.136;24.796;2023-02-28T10:05:14;15.02;;;10.07;;
10667;SDS011;5382;42.136;24.796;2023-02-28T10:07:49;20.55;;;12.07;;
10667;SDS011;5382;42.136;24.796;2023-02-28T10:10:24;19.25;;;11.95;;
10667;SDS011;5382;42.136;24.796;2023-02-28T10:12:56;22.30;;;11.55;;
10667;SDS011;5382;42.136;24.796;2023-02-28T10:15:25;20.52;;;13.23;;
10667;SDS011;5382;42.136;24.796;2023-02-28T10:17:57;27.15;;;20.90;;
10667;SDS011;5382;42.136;24.796;2023-02-28T10:20:29;23.77;;;17.25;;
10667;SDS011;5382;42.136;24.796;2023-02-28T10:23:02;23.33;;;17.85;;
10667;SDS011;5382;42.136;24.796;2023-02-28T10:25:37;20.45;;;17.30;;
10667;SDS011;5382;42.136;24.796;2023-02-28T10:28:08;18.50;;;12.23;;
10667;SDS011;5382;42.136;24.796;2023-02-28T10:30:38;22.00;;;13.40;;
10667;SDS011;5382;42.136;24.796;2023-02-28T10:33:08;20.90;;;14.63;;
10667;SDS011;5382;42.136;24.796;2023-02-28T10:35:45;30.00;;;14.55;;
10667;SDS011;5382;42.136;24.796;2023-02-28T10:38:14;20.67;;;12.95;;
10667;SDS011;5382;42.136;24.796;2023-02-28T10:40:43;19.80;;;13.00;;
10667;SDS011;5382;42.136;24.796;2023-02-28T10:43:17;18.10;;;12.45;;
10667;SDS011;5382;42.136;24.796;2023-02-28T10:45:55;19.70;;;13.30;;
10667;SDS011;5382;42.136;24.796;2023-02-28T10:48:30;25.25;;;12.50;;
10667;SDS011;5382;42.136;24.796;2023-02-28T10:51:00;22.58;;;13.82;;
10667;SDS011;5382;42.136;24.796;2023-02-28T10:53:33;22.67;;;13.23;;
10667;SDS011;5382;42.136;24.796;2023-02-28T10:56:02;18.35;;;11.77;;
10667;SDS011;5382;42.136;24.796;2023-02-28T10:58:34;21.85;;;14.95;;
10667;SDS011;5382;42.136;24.796;2023-02-28T11:01:13;23.30;;;14.45;;
10667;SDS011;5382;42.136;24.796;2023-02-28T11:03:41;18.13;;;11.90;;
10667;SDS011;5382;42.136;24.796;2023-02-28T11:06:12;22.67;;;13.18;;
10667;SDS011;5382;42.136;24.796;2023-02-28T11:08:47;19.38;;;13.05;;
10667;SDS011;5382;42.136;24.796;2023-02-28T11:11:16;20.75;;;13.20;;
10667;SDS011;5382;42.136;24.796;2023-02-28T11:13:45;19.60;;;12.27;;
10667;SDS011;5382;42.136;24.796;2023-02-28T11:16:16;20.80;;;13.10;;
10667;SDS011;5382;42.136;24.796;2023-02-28T11:18:44;17.10;;;11.75;;
10667;SDS011;5382;42.136;24.796;2023-02-28T11:21:17;20.33;;;13.10;;
10667;SDS011;5382;42.136;24.796;2023-02-28T11:23:47;17.60;;;12.77;;
10667;SDS011;5382;42.136;24.796;2023-02-28T11:29:03;26.85;;;14.45;;
10667;SDS011;5382;42.136;24.796;2023-02-28T11:31:37;20.60;;;12.85;;
10667;SDS011;5382;42.136;24.796;2023-02-28T11:34:11;20.15;;;13.35;;
10667;SDS011;5382;42.136;24.796;2023-02-28T11:36:51;24.80;;;14.27;;
10667;SDS011;5382;42.136;24.796;2023-02-28T11:39:19;28.10;;;15.05;;
10667;SDS011;5382;42.136;24.796;2023-02-28T11:41:54;22.63;;;15.82;;
10667;SDS011;5382;42.136;24.796;2023-02-28T11:44:41;26.90;;;15.02;;
10667;SDS011;5382;42.136;24.796;2023-02-28T11:47:17;25.88;;;15.20;;
10667;SDS011;5382;42.136;24.796;2023-02-28T11:49:58;22.50;;;14.88;;
10667;SDS011;5382;42.136;24.796;2023-02-28T11:52:39;23.00;;;14.93;;
10667;SDS011;5382;42.136;24.796;2023-02-28T11:55:14;20.73;;;15.20;;
10667;SDS011;5382;42.136;24.796;2023-02-28T11:58:04;24.83;;;14.25;;
10667;SDS011;5382;42.136;24.796;2023-02-28T12:00:49;33.53;;;16.05;;
10667;SDS011;5382;42.136;24.796;2023-02-28T12:03:27;24.45;;;15.82;;
10667;SDS011;5382;42.136;24.796;2023-02-28T12:06:08;19.75;;;12.05;;
10667;SDS011;5382;42.136;24.796;2023-02-28T12:08:47;23.67;;;15.63;;
10667;SDS011;5382;42.136;24.796;2023-02-28T12:11:25;30.30;;;17.15;;
10667;SDS011;5382;42.136;24.796;2023-02-28T12:14:00;27.42;;;18.25;;
10667;SDS011;5382;42.136;24.796;2023-02-28T12:16:45;30.48;;;17.40;;
10667;SDS011;5382;42.136;24.796;2023-02-28T12:19:20;27.95;;;16.90;;
10667;SDS011;5382;42.136;24.796;2023-02-28T12:25:06;30.23;;;17.10;;
10667;SDS011;5382;42.136;24.796;2023-02-28T12:27:48;27.83;;;15.82;;
10667;SDS011;5382;42.136;24.796;2023-02-28T12:30:19;25.25;;;16.58;;
10667;SDS011;5382;42.136;24.796;2023-02-28T12:32:49;31.83;;;17.13;;
10667;SDS011;5382;42.136;24.796;2023-02-28T12:35:21;24.80;;;15.98;;
10667;SDS011;5382;42.136;24.796;2023-02-28T12:37:52;24.48;;;15.63;;
10667;SDS011;5382;42.136;24.796;2023-02-28T12:40:28;26.00;;;16.25;;
10667;SDS011;5382;42.136;24.796;2023-02-28T12:43:09;19.00;;;12.93;;
10667;SDS011;5382;42.136;24.796;2023-02-28T12:45:40;28.05;;;16.90;;
10667;SDS011;5382;42.136;24.796;2023-02-28T12:48:10;49.58;;;14.57;;
10667;SDS011;5382;42.136;24.796;2023-02-28T12:50:41;26.23;;;13.75;;
10667;SDS011;5382;42.136;24.796;2023-02-28T12:53:09;31.00;;;16.20;;
10667;SDS011;5382;42.136;24.796;2023-02-28T12:55:45;19.42;;;12.93;;
10667;SDS011;5382;42.136;24.796;2023-02-28T12:58:20;24.40;;;15.75;;
10667;SDS011;5382;42.136;24.796;2023-02-28T13:01:04;28.48;;;16.77;;
10667;SDS011;5382;42.136;24.796;2023-02-28T13:04:05;24.27;;;14.98;;
10667;SDS011;5382;42.136;24.796;2023-02-28T13:07:08;23.85;;;13.57;;
10667;SDS011;5382;42.136;24.796;2023-02-28T13:09:55;20.27;;;12.63;;
10667;SDS011;5382;42.136;24.796;2023-02-28T13:12:25;26.42;;;15.32;;
10667;SDS011;5382;42.136;24.796;2023-02-28T13:15:00;24.60;;;15.15;;
10667;SDS011;5382;42.136;24.796;2023-02-28T13:17:36;23.80;;;15.40;;
10667;SDS011;5382;42.136;24.796;2023-02-28T13:20:14;23.85;;;14.18;;
10667;SDS011;5382;42.136;24.796;2023-02-28T13:22:44;27.40;;;16.00;;
10667;SDS011;5382;42.136;24.796;2023-02-28T13:31:30;24.40;;;16.25;;
10667;SDS011;5382;42.136;24.796;2023-02-28T13:36:42;24.60;;;16.58;;
10667;SDS011;5382;42.136;24.796;2023-02-28T13:42:23;24.45;;;15.38;;
10667;SDS011;5382;42.136;24.796;2023-02-28T13:45:20;25.13;;;17.05;;
10667;SDS011;5382;42.136;24.796;2023-02-28T13:47:55;25.08;;;17.65;;
10667;SDS011;5382;42.136;24.796;2023-02-28T13:50:29;24.55;;;15.50;;
10667;SDS011;5382;42.136;24.796;2023-02-28T13:56:03;24.58;;;14.73;;
10667;SDS011;5382;42.136;24.796;2023-02-28T13:58:46;19.98;;;12.13;;
10667;SDS011;5382;42.136;24.796;2023-02-28T14:01:29;20.75;;;13.95;;
10667;SDS011;5382;42.136;24.796;2023-02-28T14:04:21;19.20;;;12.85;;
10667;SDS011;5382;42.136;24.796;2023-02-28T14:07:16;20.75;;;14.55;;
10667;SDS011;5382;42.136;24.796;2023-02-28T14:09:46;19.92;;;14.63;;
10667;SDS011;5382;42.136;24.796;2023-02-28T14:15:44;20.60;;;14.05;;
10667;SDS011;5382;42.136;24.796;2023-02-28T14:18:20;20.58;;;12.70;;
10667;SDS011;5382;42.136;24.796;2023-02-28T14:20:57;17.35;;;12.20;;
10667;SDS011;5382;42.136;24.796;2023-02-28T14:23:46;15.98;;;10.73;;
10667;SDS011;5382;42.136;24.796;2023-02-28T14:26:33;14.20;;;9.50;;
10667;SDS011;5382;42.136;24.796;2023-02-28T14:29:28;18.02;;;11.07;;
10667;SDS011;5382;42.136;24.796;2023-02-28T14:32:06;16.27;;;11.35;;
10667;SDS011;5382;42.136;24.796;2023-02-28T14:34:42;17.15;;;10.75;;
10667;SDS011;5382;42.136;24.796;2023-02-28T14:37:15;19.13;;;11.90;;
10667;SDS011;5382;42.136;24.796;2023-02-28T14:39:45;16.88;;;12.02;;
10667;SDS011;5382;42.136;24.796;2023-02-28T14:42:27;14.90;;;10.55;;
10667;SDS011;5382;42.136;24.796;2023-02-28T14:44:55;18.08;;;11.73;;
10667;SDS011;5382;42.136;24.796;2023-02-28T14:47:23;23.00;;;13.55;;
10667;SDS011;5382;42.136;24.796;2023-02-28T14:49:53;18.23;;;11.85;;
10667;SDS011;5382;42.136;24.796;2023-02-28T14:52:22;21.52;;;13.23;;
10667;SDS011;5382;42.136;24.796;2023-02-28T14:54:52;21.50;;;13.60;;
10667;SDS011;5382;42.136;24.796;2023-02-28T14:57:22;20.45;;;14.88;;
10667;SDS011;5382;42.136;24.796;2023-02-28T15:00:12;21.23;;;15.35;;
10667;SDS011;5382;42.136;24.796;2023-02-28T15:02:43;23.48;;;16.02;;
10667;SDS011;5382;42.136;24.796;2023-02-28T15:05:16;24.83;;;15.30;;
10667;SDS011;5382;42.136;24.796;2023-02-28T15:08:00;19.90;;;12.70;;
10667;SDS011;5382;42.136;24.796;2023-02-28T15:10:28;17.70;;;11.93;;
10667;SDS011;5382;42.136;24.796;2023-02-28T15:12:56;18.55;;;12.85;;
10667;SDS011;5382;42.136;24.796;2023-02-28T15:15:25;21.08;;;11.40;;
10667;SDS011;5382;42.136;24.796;2023-02-28T15:18:06;16.27;;;11.63;;
10667;SDS011;5382;42.136;24.796;2023-02-28T15:20:40;17.00;;;12.82;;
10667;SDS011;5382;42.136;24.796;2023-02-28T15:23:11;21.17;;;13.10;;
10667;SDS011;5382;42.136;24.796;2023-02-28T15:25:39;20.48;;;13.25;;
10667;SDS011;5382;42.136;24.796;2023-02-28T15:28:09;20.17;;;12.95;;